Time;durP1;ratioP1;P1;durP2;ratioP2;P2;SDS_P1;SDS_P2;PMS_P1;PMS_P2;Temp;Humidity;BMP_temperature;BMP_pressure;BME280_temperature;BME280_humidity;BME280_pressure;Samples;Min_cycle;Max_cycle;Signal;HPM_P1;HPM_P2
2021/08/20 00:01:01;;;;;;;3.80;3.10;;;23.30;62.90;;;;;;4974004;28;20215;-47
2021/08/20 00:03:26;;;;;;;3.10;2.80;;;23.30;63.20;;;;;;4973199;28;20426;-50
2021/08/20 00:05:52;;;;;;;3.70;2.93;;;23.20;63.50;;;;;;4973797;28;20221;-48
2021/08/20 00:08:17;;;;;;;5.60;2.90;;;23.20;63.30;;;;;;4972956;28;20238;-47
2021/08/20 00:10:43;;;;;;;3.67;2.90;;;23.30;63.10;;;;;;4972188;28;20237;-47
2021/08/20 00:13:09;;;;;;;4.27;3.23;;;23.40;62.80;;;;;;4976048;28;20254;-47
2021/08/20 00:15:35;;;;;;;4.07;2.97;;;23.30;63.00;;;;;;4993277;28;20198;-47
2021/08/20 00:18:00;;;;;;;4.10;2.93;;;23.30;62.90;;;;;;4992007;28;20485;-47
2021/08/20 00:20:26;;;;;;;3.27;2.83;;;23.40;62.90;;;;;;4992979;28;20531;-47
2021/08/20 00:22:52;;;;;;;3.97;2.97;;;23.30;63.20;;;;;;4992339;28;20294;-49
2021/08/20 00:25:17;;;;;;;5.10;3.30;;;23.20;63.50;;;;;;4993410;28;20255;-47
2021/08/20 00:27:43;;;;;;;5.10;3.37;;;23.20;63.40;;;;;;4992007;28;20205;-48
2021/08/20 00:30:09;;;;;;;3.47;3.17;;;23.20;63.70;;;;;;4985810;28;20670;-47
2021/08/20 00:32:36;;;;;;;4.20;3.10;;;23.20;63.70;;;;;;4992174;28;20225;-47
2021/08/20 00:35:03;;;;;;;3.67;3.30;;;23.30;63.60;;;;;;4992736;28;20441;-49
2021/08/20 00:37:29;;;;;;;3.17;2.90;;;23.20;63.50;;;;;;4990470;28;20489;-47
2021/08/20 00:39:56;;;;;;;2.73;2.50;;;23.20;63.70;;;;;;4992616;28;20428;-48
2021/08/20 00:42:22;;;;;;;3.77;2.90;;;23.20;63.60;;;;;;4992214;28;20947;-47
2021/08/20 00:44:47;;;;;;;4.40;2.73;;;23.20;63.60;;;;;;4992723;28;20434;-47
2021/08/20 00:47:13;;;;;;;3.13;2.93;;;23.20;63.60;;;;;;4991733;28;20753;-47
2021/08/20 00:49:39;;;;;;;4.03;3.30;;;23.20;63.60;;;;;;4992906;28;20277;-47
2021/08/20 00:52:05;;;;;;;6.93;2.90;;;23.10;63.80;;;;;;4990650;28;20589;-47
2021/08/20 00:54:30;;;;;;;7.50;3.30;;;23.10;64.20;;;;;;4973074;28;20231;-47
2021/08/20 00:56:57;;;;;;;3.90;2.50;;;23.10;64.20;;;;;;4972187;28;20520;-48
2021/08/20 00:59:26;;;;;;;3.90;3.60;;;23.10;64.00;;;;;;4973318;28;20233;-48
2021/08/20 01:01:52;;;;;;;3.63;3.33;;;23.10;64.00;;;;;;4970780;28;20443;-51
2021/08/20 01:04:17;;;;;;;2.93;2.73;;;23.00;64.40;;;;;;4973411;28;20431;-47
2021/08/20 01:06:43;;;;;;;3.47;3.00;;;22.90;64.80;;;;;;4972616;28;20195;-48
2021/08/20 01:09:09;;;;;;;3.27;2.97;;;22.90;65.00;;;;;;4972837;28;20191;-48
2021/08/20 01:11:35;;;;;;;6.23;3.73;;;22.90;64.80;;;;;;4972084;28;20245;-48
2021/08/20 01:14:04;;;;;;;3.30;3.00;;;22.90;64.90;;;;;;4982756;28;20875;-47
2021/08/20 01:16:31;;;;;;;4.87;3.03;;;23.00;64.80;;;;;;4991708;28;20441;-47
2021/08/20 01:18:56;;;;;;;3.33;2.97;;;23.10;64.50;;;;;;4991790;28;20485;-47
2021/08/20 01:21:23;;;;;;;3.17;2.80;;;23.10;64.30;;;;;;4992374;28;20436;-49
2021/08/20 01:23:58;;;;;;;4.63;3.07;;;23.00;64.80;;;;;;4990438;28;20191;-48
2021/08/20 01:26:25;;;;;;;3.07;2.77;;;22.90;65.20;;;;;;4992194;28;20832;-47
2021/08/20 01:28:51;;;;;;;3.23;2.57;;;22.90;65.00;;;;;;4985890;28;20419;-47
2021/08/20 01:31:18;;;;;;;4.90;2.67;;;22.90;65.20;;;;;;4989384;28;20433;-48
2021/08/20 01:33:44;;;;;;;3.20;2.90;;;22.80;65.60;;;;;;4991716;28;20237;-47
2021/08/20 01:36:10;;;;;;;3.00;2.80;;;22.70;65.80;;;;;;4991966;28;20926;-48
2021/08/20 01:38:45;;;;;;;3.50;2.80;;;22.80;65.80;;;;;;4991032;28;20484;-47
2021/08/20 01:41:11;;;;;;;3.37;2.90;;;22.90;65.50;;;;;;4992096;28;20201;-47
2021/08/20 01:43:36;;;;;;;3.57;2.97;;;22.90;66.30;;;;;;4991645;28;20781;-47
2021/08/20 01:46:02;;;;;;;3.40;3.10;;;22.80;65.30;;;;;;4991928;28;20421;-47
2021/08/20 01:48:27;;;;;;;3.40;2.67;;;22.80;65.50;;;;;;4991110;28;20194;-47
2021/08/20 01:50:53;;;;;;;5.50;3.07;;;22.70;66.00;;;;;;4991954;28;20199;-47
2021/08/20 01:53:18;;;;;;;3.93;3.50;;;22.80;66.00;;;;;;4980165;28;20590;-47
2021/08/20 01:55:44;;;;;;;3.53;3.10;;;22.80;65.80;;;;;;4971158;28;20199;-47
2021/08/20 01:58:10;;;;;;;3.93;2.73;;;22.80;65.50;;;;;;4971543;28;20305;-48
2021/08/20 02:00:36;;;;;;;4.00;2.90;;;22.90;65.30;;;;;;4972537;28;20191;-47
2021/08/20 02:03:02;;;;;;;3.37;3.03;;;22.90;65.00;;;;;;4971999;28;20591;-48
2021/08/20 02:05:28;;;;;;;4.27;2.93;;;22.90;65.00;;;;;;4972155;28;20431;-48
2021/08/20 02:07:54;;;;;;;4.57;3.13;;;22.80;64.90;;;;;;4971557;28;20279;-47
2021/08/20 02:10:19;;;;;;;2.40;2.20;;;22.90;65.00;;;;;;4975783;28;20493;-48
2021/08/20 02:12:45;;;;;;;3.10;2.80;;;22.80;64.80;;;;;;4975406;28;20231;-47
2021/08/20 02:15:11;;;;;;;3.90;2.97;;;22.80;65.00;;;;;;4995275;28;20245;-47
2021/08/20 02:17:37;;;;;;;3.50;3.20;;;22.90;65.00;;;;;;4994391;28;20280;-47
2021/08/20 02:20:03;;;;;;;5.90;3.00;;;22.90;65.00;;;;;;4995530;28;20834;-47
2021/08/20 02:22:29;;;;;;;2.90;2.60;;;22.90;64.90;;;;;;4993245;28;20586;-47
2021/08/20 02:24:55;;;;;;;3.70;3.33;;;22.90;64.80;;;;;;4995240;28;20454;-48
2021/08/20 02:27:21;;;;;;;3.37;3.10;;;22.90;64.70;;;;;;4994749;28;20206;-49
2021/08/20 02:29:47;;;;;;;2.83;2.63;;;22.90;64.70;;;;;;4988135;28;20662;-47
2021/08/20 02:32:13;;;;;;;2.77;2.50;;;22.90;64.90;;;;;;4994742;28;20517;-47
2021/08/20 02:34:39;;;;;;;3.20;3.00;;;22.80;65.20;;;;;;4994944;28;20783;-47
2021/08/20 02:37:05;;;;;;;3.30;3.00;;;22.70;65.30;;;;;;4994159;28;20202;-47
2021/08/20 02:39:30;;;;;;;3.20;2.73;;;22.70;65.40;;;;;;4994922;28;20218;-47
2021/08/20 02:41:56;;;;;;;5.40;3.33;;;22.70;65.60;;;;;;4994126;28;20316;-48
2021/08/20 02:44:22;;;;;;;3.00;2.57;;;22.70;65.50;;;;;;4995096;28;20198;-48
2021/08/20 02:46:48;;;;;;;3.10;2.80;;;22.70;65.40;;;;;;4994246;28;20199;-47
2021/08/20 02:49:13;;;;;;;4.97;3.50;;;22.70;65.80;;;;;;4993460;28;20191;-47
2021/08/20 02:51:39;;;;;;;6.53;3.03;;;22.70;65.40;;;;;;4994081;28;20233;-47
2021/08/20 02:54:05;;;;;;;4.80;2.80;;;22.80;65.30;;;;;;4993448;28;20586;-48
2021/08/20 02:56:30;;;;;;;7.07;3.10;;;22.90;65.00;;;;;;4994108;28;20205;-48
2021/08/20 02:58:56;;;;;;;3.53;2.87;;;22.80;64.80;;;;;;4994050;28;20234;-47
2021/08/20 03:01:21;;;;;;;3.53;2.90;;;22.70;65.10;;;;;;4995170;28;20205;-47
2021/08/20 03:03:48;;;;;;;2.53;2.33;;;22.70;65.10;;;;;;4993944;28;20186;-47
2021/08/20 03:06:15;;;;;;;3.20;3.00;;;22.80;65.00;;;;;;4994502;28;20277;-47
2021/08/20 03:08:40;;;;;;;3.57;2.73;;;22.80;64.50;;;;;;4993443;28;20433;-49
2021/08/20 03:11:06;;;;;;;3.27;3.03;;;22.90;64.20;;;;;;4994022;28;20426;-47
2021/08/20 03:13:32;;;;;;;3.73;3.27;;;22.90;63.90;;;;;;4993591;28;20670;-47
2021/08/20 03:15:57;;;;;;;4.60;3.00;;;22.90;63.70;;;;;;4992890;28;20259;-47
2021/08/20 03:18:23;;;;;;;5.60;2.70;;;22.90;64.50;;;;;;4993440;28;20706;-47
2021/08/20 03:20:49;;;;;;;3.43;2.70;;;22.90;63.80;;;;;;4994154;28;20197;-47
2021/08/20 03:23:15;;;;;;;2.90;2.60;;;22.90;64.50;;;;;;4992522;28;20190;-48
2021/08/20 03:25:40;;;;;;;2.60;2.43;;;22.90;63.80;;;;;;4994368;28;20207;-48
2021/08/20 03:28:07;;;;;;;3.00;2.77;;;22.80;63.80;;;;;;4993313;28;20432;-47
2021/08/20 03:30:34;;;;;;;3.33;3.03;;;22.90;64.80;;;;;;4986452;28;20253;-47
2021/08/20 03:33:00;;;;;;;5.53;2.50;;;22.90;63.80;;;;;;4993668;28;21021;-47
2021/08/20 03:35:26;;;;;;;7.60;3.43;;;22.90;63.70;;;;;;4994003;28;20458;-48
2021/08/20 03:37:52;;;;;;;4.50;2.87;;;23.00;63.80;;;;;;4993016;28;20524;-47
2021/08/20 03:40:18;;;;;;;3.20;2.90;;;22.90;63.70;;;;;;4993902;28;20872;-47
2021/08/20 03:42:44;;;;;;;2.73;2.53;;;22.90;63.80;;;;;;4991791;28;20426;-49
2021/08/20 03:45:11;;;;;;;3.13;2.80;;;22.90;63.90;;;;;;4993806;28;20428;-47
2021/08/20 03:47:37;;;;;;;5.37;3.30;;;22.90;64.00;;;;;;4992707;28;20647;-48
2021/08/20 03:50:04;;;;;;;3.17;2.83;;;22.90;64.10;;;;;;4993567;28;20458;-48
2021/08/20 03:52:30;;;;;;;3.37;3.07;;;22.90;64.00;;;;;;4987783;28;20556;-48
2021/08/20 03:54:55;;;;;;;2.83;2.60;;;22.80;64.30;;;;;;4974163;28;20423;-48
2021/08/20 03:57:21;;;;;;;2.23;2.03;;;22.80;64.30;;;;;;4972925;28;20201;-47
2021/08/20 03:59:46;;;;;;;5.30;2.80;;;22.80;64.30;;;;;;4974191;28;20192;-47
2021/08/20 04:02:12;;;;;;;2.90;2.70;;;22.80;64.30;;;;;;4973391;28;20593;-47
2021/08/20 04:04:37;;;;;;;4.60;3.20;;;22.80;64.40;;;;;;4974106;28;20282;-48
2021/08/20 04:07:03;;;;;;;4.67;2.60;;;22.80;64.50;;;;;;4971487;28;20195;-49
2021/08/20 04:09:29;;;;;;;4.20;3.33;;;22.80;65.00;;;;;;4973983;28;20203;-48
2021/08/20 04:11:55;;;;;;;5.03;3.23;;;22.70;65.20;;;;;;4973110;28;20243;-47
2021/08/20 04:14:20;;;;;;;3.33;2.93;;;22.60;65.80;;;;;;4986419;28;20202;-47
2021/08/20 04:16:46;;;;;;;3.90;2.80;;;22.50;66.00;;;;;;4992035;28;20946;-47
2021/08/20 04:19:12;;;;;;;3.80;3.40;;;22.50;66.20;;;;;;4993155;28;20615;-47
2021/08/20 04:21:38;;;;;;;3.47;3.17;;;22.50;66.20;;;;;;4992591;28;20555;-48
2021/08/20 04:24:05;;;;;;;3.40;3.10;;;22.50;66.10;;;;;;4992997;28;20606;-48
2021/08/20 04:26:30;;;;;;;2.83;2.60;;;22.50;66.50;;;;;;4992602;28;20519;-48
2021/08/20 04:28:56;;;;;;;3.27;2.97;;;22.40;66.80;;;;;;4987183;28;20480;-47
2021/08/20 04:31:21;;;;;;;5.80;3.53;;;22.30;66.80;;;;;;4990694;28;20202;-47
2021/08/20 04:33:47;;;;;;;3.50;3.20;;;22.30;66.60;;;;;;4991299;28;20648;-47
2021/08/20 04:36:15;;;;;;;3.57;3.27;;;22.40;66.50;;;;;;4992770;28;20209;-48
2021/08/20 04:38:41;;;;;;;7.07;2.70;;;22.50;66.30;;;;;;4991902;28;20227;-47
2021/08/20 04:41:07;;;;;;;3.40;2.47;;;22.50;66.10;;;;;;4992846;28;20795;-48
2021/08/20 04:43:35;;;;;;;3.00;2.70;;;22.50;66.40;;;;;;4992395;28;20194;-47
2021/08/20 04:46:00;;;;;;;3.87;3.57;;;22.40;66.50;;;;;;4992438;28;20433;-48
2021/08/20 04:48:26;;;;;;;4.90;2.70;;;22.50;66.30;;;;;;4991941;28;20476;-47
2021/08/20 04:50:53;;;;;;;4.80;3.43;;;22.50;66.50;;;;;;4992633;28;20603;-47
2021/08/20 04:53:19;;;;;;;3.30;3.00;;;22.40;66.90;;;;;;4980818;28;20203;-47
2021/08/20 04:55:45;;;;;;;3.23;2.93;;;22.50;66.70;;;;;;4973177;28;20808;-47
2021/08/20 04:58:11;;;;;;;3.00;2.67;;;22.40;66.70;;;;;;4972151;28;20581;-47
2021/08/20 05:00:37;;;;;;;2.77;2.57;;;22.20;67.60;;;;;;4971778;28;20519;-47
2021/08/20 05:03:04;;;;;;;3.10;2.80;;;22.10;68.10;;;;;;4972892;28;20683;-47
2021/08/20 05:05:29;;;;;;;5.13;3.83;;;22.10;68.30;;;;;;4972895;28;20242;-47
2021/08/20 05:07:55;;;;;;;4.00;3.27;;;22.20;68.10;;;;;;4972085;28;20942;-47
2021/08/20 05:10:21;;;;;;;3.47;3.17;;;22.10;68.00;;;;;;4973194;28;20192;-47
2021/08/20 05:12:47;;;;;;;4.10;3.47;;;22.10;68.10;;;;;;4972214;28;20679;-48
2021/08/20 05:15:12;;;;;;;3.30;3.00;;;22.00;68.20;;;;;;4990855;28;20206;-47
2021/08/20 05:17:38;;;;;;;5.37;3.20;;;21.90;69.10;;;;;;4991500;28;20218;-48
2021/08/20 05:20:05;;;;;;;3.27;2.97;;;21.60;71.00;;;;;;4992236;28;20202;-47
2021/08/20 05:23:03;;;;;;;3.30;2.90;;;21.80;70.10;;;;;;4991635;28;20337;-47
2021/08/20 05:25:33;;;;;;;3.13;2.87;;;21.80;69.40;;;;;;4969430;28;20511;-47
2021/08/20 05:27:59;;;;;;;4.00;3.17;;;21.90;69.60;;;;;;4989803;28;20430;-47
2021/08/20 05:30:25;;;;;;;3.53;2.70;;;22.10;69.00;;;;;;4984536;28;20906;-47
2021/08/20 05:32:50;;;;;;;3.00;2.70;;;22.20;68.60;;;;;;4991644;28;20194;-47
2021/08/20 05:35:16;;;;;;;6.97;3.57;;;22.20;68.20;;;;;;4992030;28;20267;-47
2021/08/20 05:37:43;;;;;;;3.13;2.87;;;22.10;68.30;;;;;;4991214;28;20304;-47
2021/08/20 05:40:10;;;;;;;3.90;3.60;;;22.00;68.80;;;;;;4992328;28;20258;-47
2021/08/20 05:42:35;;;;;;;10.43;4.00;;;22.00;69.00;;;;;;4991417;28;20513;-47
2021/08/20 05:45:01;;;;;;;3.43;3.13;;;22.10;69.10;;;;;;4995184;28;20595;-46
2021/08/20 05:47:27;;;;;;;3.63;3.30;;;22.20;68.70;;;;;;4994892;28;20752;-47
2021/08/20 05:49:52;;;;;;;2.87;2.57;;;22.30;68.30;;;;;;4996019;28;20191;-51
2021/08/20 05:52:18;;;;;;;4.10;3.30;;;22.30;68.20;;;;;;4993081;28;20647;-48
2021/08/20 05:54:44;;;;;;;3.63;3.30;;;22.40;67.80;;;;;;4974606;28;20556;-48
2021/08/20 05:57:09;;;;;;;7.90;3.40;;;22.40;67.60;;;;;;4974320;28;20203;-47
2021/08/20 05:59:35;;;;;;;3.03;2.73;;;22.50;67.50;;;;;;4975058;28;20366;-47
2021/08/20 06:02:00;;;;;;;3.70;3.40;;;22.40;67.80;;;;;;4975822;28;20238;-47
2021/08/20 06:04:26;;;;;;;3.83;3.53;;;22.50;67.70;;;;;;4976060;28;20207;-47
2021/08/20 06:06:52;;;;;;;5.47;3.70;;;22.70;67.40;;;;;;4975449;28;20560;-48
2021/08/20 06:09:18;;;;;;;5.20;3.07;;;22.70;67.10;;;;;;4976358;28;20431;-47
2021/08/20 06:11:43;;;;;;;5.47;3.47;;;22.80;66.80;;;;;;4975356;28;20263;-47
2021/08/20 06:14:09;;;;;;;4.00;3.30;;;22.60;67.40;;;;;;4988139;28;20192;-48
2021/08/20 06:16:35;;;;;;;5.57;3.43;;;22.60;67.80;;;;;;4991483;28;20191;-47
2021/08/20 06:19:00;;;;;;;3.80;3.40;;;22.70;67.50;;;;;;4975830;28;20774;-47
2021/08/20 06:21:26;;;;;;;5.03;3.30;;;22.80;67.20;;;;;;4974285;28;20612;-49
2021/08/20 06:23:52;;;;;;;6.03;4.30;;;22.80;67.20;;;;;;4975369;28;20244;-49
2021/08/20 06:26:17;;;;;;;7.40;3.17;;;22.80;67.10;;;;;;4975976;28;20199;-47
2021/08/20 06:28:43;;;;;;;4.70;3.43;;;22.80;67.10;;;;;;4975026;28;20648;-47
2021/08/20 06:31:09;;;;;;;6.20;3.30;;;22.90;67.00;;;;;;4991682;28;20257;-48
2021/08/20 06:33:36;;;;;;;5.00;3.83;;;22.70;67.20;;;;;;4994450;28;20236;-47
2021/08/20 06:36:02;;;;;;;5.60;3.50;;;22.60;67.50;;;;;;4994807;28;20750;-47
2021/08/20 06:38:28;;;;;;;5.93;3.33;;;22.40;67.80;;;;;;4993421;28;20564;-48
2021/08/20 06:40:53;;;;;;;3.93;3.10;;;22.60;67.70;;;;;;4995154;28;20662;-48
2021/08/20 06:43:22;;;;;;;3.70;3.33;;;22.60;66.60;;;;;;4995105;28;20281;-49
2021/08/20 06:45:47;;;;;;;3.70;2.90;;;22.80;66.40;;;;;;4993880;28;20618;-49
2021/08/20 06:48:16;;;;;;;4.77;3.70;;;23.00;65.80;;;;;;4993555;28;20460;-46
2021/08/20 06:50:43;;;;;;;4.80;3.43;;;23.20;65.40;;;;;;4994742;28;20630;-48
2021/08/20 06:53:09;;;;;;;3.80;3.40;;;23.30;65.00;;;;;;4984127;28;20426;-47
2021/08/20 06:55:35;;;;;;;2.83;2.60;;;23.50;64.60;;;;;;4974732;28;20847;-47
2021/08/20 06:58:01;;;;;;;7.27;3.63;;;23.60;63.80;;;;;;4974155;28;20466;-47
2021/08/20 07:00:26;;;;;;;5.10;3.53;;;23.60;63.70;;;;;;4975328;28;20253;-48
2021/08/20 07:02:52;;;;;;;4.03;3.63;;;23.70;63.60;;;;;;4974707;28;20214;-47
2021/08/20 07:05:18;;;;;;;3.83;3.50;;;23.90;63.50;;;;;;4975255;28;20206;-47
2021/08/20 07:07:47;;;;;;;3.93;3.47;;;24.00;62.90;;;;;;4974174;28;20234;-48
2021/08/20 07:10:15;;;;;;;5.20;3.13;;;24.10;62.00;;;;;;4974888;28;20934;-49
2021/08/20 07:12:42;;;;;;;5.00;3.30;;;24.30;61.30;;;;;;4972317;28;21057;-48
2021/08/20 07:15:09;;;;;;;5.50;3.40;;;24.40;60.90;;;;;;4993695;28;20469;-48
2021/08/20 07:17:35;;;;;;;4.77;4.33;;;24.50;60.00;;;;;;4993261;28;20429;-47
2021/08/20 07:20:02;;;;;;;4.37;3.60;;;24.60;59.70;;;;;;4994195;28;20993;-47
2021/08/20 07:22:27;;;;;;;7.43;3.90;;;24.70;59.50;;;;;;4993566;28;20433;-47
2021/08/20 07:24:53;;;;;;;3.80;3.10;;;24.80;59.10;;;;;;4993860;28;20422;-48
2021/08/20 07:27:19;;;;;;;4.90;4.40;;;25.00;59.00;;;;;;4993317;28;20191;-48
2021/08/20 07:29:46;;;;;;;4.67;4.17;;;25.20;58.40;;;;;;4986770;28;20667;-47
2021/08/20 07:32:12;;;;;;;4.87;4.37;;;25.40;58.00;;;;;;4993459;28;20461;-47
2021/08/20 07:34:37;;;;;;;5.60;4.70;;;25.60;57.30;;;;;;4994040;28;20892;-50
2021/08/20 07:37:04;;;;;;;5.03;4.50;;;25.80;56.20;;;;;;4991651;28;20201;-48
2021/08/20 07:39:30;;;;;;;6.57;4.57;;;25.90;55.80;;;;;;4991918;28;20248;-48
2021/08/20 07:41:57;;;;;;;7.87;4.60;;;26.00;55.60;;;;;;4993395;28;20529;-48
2021/08/20 07:44:25;;;;;;;6.63;3.90;;;26.20;55.50;;;;;;4994018;28;20199;-48
2021/08/20 07:46:51;;;;;;;5.47;4.97;;;26.50;55.30;;;;;;4992984;28;20952;-47
2021/08/20 07:49:17;;;;;;;4.87;4.37;;;26.60;54.20;;;;;;4993803;28;20458;-48
2021/08/20 07:51:43;;;;;;;4.80;4.40;;;26.60;54.10;;;;;;4993123;28;20878;-47
2021/08/20 07:54:09;;;;;;;5.27;4.77;;;26.70;54.10;;;;;;4975784;28;20270;-48
2021/08/20 07:56:34;;;;;;;5.30;4.90;;;26.80;54.00;;;;;;4972008;28;20285;-47
2021/08/20 07:59:00;;;;;;;6.77;5.17;;;27.00;53.80;;;;;;4973801;28;20725;-48
2021/08/20 08:01:26;;;;;;;9.20;5.90;;;27.10;53.60;;;;;;4974105;28;20683;-52
2021/08/20 08:03:57;;;;;;;6.43;5.70;;;27.20;52.80;;;;;;4973556;28;20214;-48
2021/08/20 08:06:23;;;;;;;5.80;5.00;;;27.40;52.20;;;;;;4970998;28;20191;-48
2021/08/20 08:08:49;;;;;;;7.03;6.10;;;27.50;52.30;;;;;;4973398;28;20442;-47
2021/08/20 08:11:15;;;;;;;5.00;4.50;;;27.50;51.70;;;;;;4973849;28;20514;-47
2021/08/20 08:13:41;;;;;;;9.93;5.70;;;27.60;51.40;;;;;;4980260;28;20513;-48
2021/08/20 08:16:06;;;;;;;6.33;5.63;;;27.60;51.30;;;;;;4993171;28;20190;-47
2021/08/20 08:18:32;;;;;;;7.90;6.67;;;27.70;51.30;;;;;;4992264;28;20222;-47
2021/08/20 08:20:58;;;;;;;6.33;5.37;;;27.70;51.00;;;;;;4993433;28;20182;-47
2021/08/20 08:23:23;;;;;;;7.87;6.93;;;27.90;51.00;;;;;;4992542;28;20269;-47
2021/08/20 08:25:49;;;;;;;6.30;5.70;;;28.00;50.30;;;;;;4993185;28;20293;-47
2021/08/20 08:28:14;;;;;;;6.57;5.93;;;28.10;49.90;;;;;;4992042;28;20194;-48
2021/08/20 08:30:41;;;;;;;6.40;5.90;;;28.10;50.80;;;;;;4986712;28;20205;-49
2021/08/20 08:33:09;;;;;;;6.43;5.70;;;28.00;50.90;;;;;;4990683;28;20233;-45
2021/08/20 08:35:35;;;;;;;6.10;5.60;;;28.10;50.60;;;;;;4992703;28;20532;-50
2021/08/20 08:38:08;;;;;;;10.80;5.87;;;28.00;50.80;;;;;;4991915;28;20520;-48
2021/08/20 08:40:36;;;;;;;5.60;5.10;;;28.10;49.80;;;;;;4992665;28;20450;-48
2021/08/20 08:43:06;;;;;;;5.67;5.10;;;28.20;50.10;;;;;;4992178;28;20520;-51
2021/08/20 08:45:33;;;;;;;8.70;5.23;;;28.10;51.20;;;;;;4992673;28;20842;-48
2021/08/20 08:48:02;;;;;;;5.60;5.10;;;28.20;51.00;;;;;;4991866;28;20781;-51
2021/08/20 08:50:28;;;;;;;5.80;4.90;;;28.40;51.00;;;;;;4992723;28;20862;-53
2021/08/20 08:52:53;;;;;;;9.30;5.00;;;28.60;50.10;;;;;;4983221;28;20458;-47
2021/08/20 08:55:19;;;;;;;5.77;5.27;;;28.70;49.10;;;;;;4972884;28;20419;-48
2021/08/20 08:57:45;;;;;;;12.00;6.40;;;28.70;48.60;;;;;;4972401;28;20326;-48
2021/08/20 09:00:11;;;;;;;10.13;5.40;;;28.70;48.50;;;;;;4971524;28;20442;-48
2021/08/20 09:02:37;;;;;;;7.33;5.50;;;28.90;48.30;;;;;;4972632;28;20199;-49
2021/08/20 09:05:11;;;;;;;7.93;4.83;;;28.90;49.30;;;;;;4973226;28;20973;-47
2021/08/20 09:07:38;;;;;;;5.80;5.30;;;29.10;48.60;;;;;;4972096;28;20207;-48
2021/08/20 09:10:09;;;;;;;6.20;5.70;;;29.30;48.20;;;;;;4973074;28;20763;-48
2021/08/20 09:12:35;;;;;;;5.17;4.73;;;29.40;47.50;;;;;;4972275;28;20474;-48
2021/08/20 09:15:01;;;;;;;7.77;5.57;;;29.50;48.60;;;;;;4990555;28;20453;-47
2021/08/20 09:17:35;;;;;;;5.43;5.00;;;29.50;48.00;;;;;;4990978;28;20425;-47
2021/08/20 09:20:20;;;;;;;8.30;4.67;;;29.60;46.90;;;;;;4992216;28;20739;-47
2021/08/20 09:22:47;;;;;;;6.93;4.97;;;29.70;46.40;;;;;;4991637;28;20430;-47
2021/08/20 09:25:45;;;;;;;6.00;5.17;;;29.60;46.90;;;;;;4990551;28;20464;-50
2021/08/20 09:28:21;;;;;;;6.07;5.47;;;29.60;46.50;;;;;;4991343;28;20504;-50
2021/08/20 09:30:56;;;;;;;6.57;4.40;;;29.60;47.70;;;;;;4972997;28;20482;-48
2021/08/20 09:33:24;;;;;;;6.90;5.20;;;29.70;47.90;;;;;;4971972;28;20442;-49
2021/08/20 09:36:12;;;;;;;12.20;5.43;;;29.80;46.30;;;;;;4972871;28;20497;-50
2021/08/20 09:38:41;;;;;;;11.83;5.00;;;29.90;45.90;;;;;;4972104;28;20482;-51
2021/08/20 09:41:11;;;;;;;5.47;4.97;;;30.00;46.70;;;;;;4972841;28;20434;-48
2021/08/20 09:43:39;;;;;;;6.43;5.00;;;30.10;45.90;;;;;;4971945;28;20431;-48
2021/08/20 09:46:08;;;;;;;5.43;4.93;;;30.00;45.40;;;;;;4972487;28;20522;-48
2021/08/20 09:48:53;;;;;;;5.90;4.70;;;30.00;46.00;;;;;;4972236;28;20474;-49
2021/08/20 09:51:31;;;;;;;7.00;5.90;;;29.90;45.10;;;;;;4974877;28;20860;-48
2021/08/20 09:54:02;;;;;;;6.03;4.10;;;29.80;45.30;;;;;;4975427;28;20914;-48
2021/08/20 09:56:28;;;;;;;9.40;5.27;;;29.80;45.50;;;;;;4972211;28;20481;-47
2021/08/20 09:58:56;;;;;;;4.87;4.47;;;29.70;45.60;;;;;;4972300;28;20827;-48
2021/08/20 10:01:22;;;;;;;6.10;5.00;;;29.60;45.70;;;;;;4972876;28;20784;-49
2021/08/20 10:03:50;;;;;;;5.73;5.23;;;29.60;45.40;;;;;;4971885;28;20840;-51
2021/08/20 10:06:18;;;;;;;5.73;5.33;;;29.50;46.00;;;;;;4972102;28;20431;-47
2021/08/20 10:08:44;;;;;;;5.60;4.70;;;29.50;45.50;;;;;;4971883;28;20430;-48
2021/08/20 10:11:11;;;;;;;4.83;4.40;;;29.40;46.00;;;;;;4972113;28;20437;-49
2021/08/20 10:13:37;;;;;;;6.03;5.60;;;29.40;46.40;;;;;;4978545;28;20191;-50
2021/08/20 10:16:04;;;;;;;5.90;5.37;;;29.30;46.80;;;;;;4991601;28;20964;-48
2021/08/20 10:18:32;;;;;;;6.00;5.50;;;29.30;46.30;;;;;;4989637;28;20485;-49
2021/08/20 10:20:58;;;;;;;5.17;4.60;;;29.30;46.00;;;;;;4991581;28;20788;-47
2021/08/20 10:23:24;;;;;;;4.73;4.23;;;29.50;45.90;;;;;;4991050;28;20840;-48
2021/08/20 10:25:54;;;;;;;4.53;4.13;;;29.70;46.50;;;;;;4991889;28;20413;-49
2021/08/20 10:28:20;;;;;;;4.50;4.10;;;29.90;45.70;;;;;;4990261;28;20518;-48
2021/08/20 10:30:47;;;;;;;6.43;5.77;;;30.10;45.10;;;;;;4987838;28;20422;-48
2021/08/20 10:33:12;;;;;;;5.77;5.27;;;30.30;43.50;;;;;;4994456;28;21238;-48
2021/08/20 10:35:54;;;;;;;4.60;4.20;;;30.60;43.20;;;;;;4994979;28;20418;-49
2021/08/20 10:38:22;;;;;;;3.63;3.43;;;30.80;42.90;;;;;;4994333;28;20249;-49
2021/08/20 10:41:14;;;;;;;4.13;3.83;;;31.00;42.30;;;;;;4995156;28;20433;-47
2021/08/20 10:43:48;;;;;;;6.23;4.50;;;30.90;41.50;;;;;;4994303;28;20456;-47
2021/08/20 10:46:32;;;;;;;5.10;3.77;;;31.10;41.60;;;;;;4993528;28;20437;-47
2021/08/20 10:51:48;;;;;;;3.50;3.20;;;31.90;40.90;;;;;;4994189;28;20478;-48
2021/08/20 10:54:14;;;;;;;4.30;3.50;;;32.00;40.00;;;;;;4993319;28;20476;-48
2021/08/20 10:56:40;;;;;;;4.10;3.80;;;32.00;39.00;;;;;;4993857;28;20462;-48
2021/08/20 10:59:05;;;;;;;4.07;3.73;;;32.00;39.60;;;;;;4994594;28;20521;-49
2021/08/20 11:01:32;;;;;;;4.07;3.67;;;31.90;40.80;;;;;;4994656;28;20194;-48
2021/08/20 11:03:59;;;;;;;4.00;3.70;;;31.80;41.60;;;;;;4994464;28;20203;-53
2021/08/20 11:06:50;;;;;;;4.00;3.17;;;31.70;41.30;;;;;;4994351;28;20437;-49
2021/08/20 11:09:26;;;;;;;4.50;4.10;;;31.40;42.30;;;;;;4994369;28;20462;-49
2021/08/20 11:11:52;;;;;;;9.93;4.30;;;31.40;42.80;;;;;;4992228;28;20483;-53
2021/08/20 11:14:32;;;;;;;4.90;3.70;;;31.60;41.10;;;;;;4994071;28;20418;-49
2021/08/20 11:16:58;;;;;;;3.63;3.33;;;31.80;41.30;;;;;;4991625;28;20191;-51
2021/08/20 11:19:50;;;;;;;4.43;4.00;;;31.90;40.20;;;;;;4994271;28;20890;-52
2021/08/20 11:22:21;;;;;;;4.47;4.07;;;32.20;41.00;;;;;;4993729;28;20926;-53
2021/08/20 11:25:15;;;;;;;4.10;3.40;;;32.30;39.20;;;;;;4994289;28;20430;-53
2021/08/20 11:27:53;;;;;;;5.00;3.60;;;32.30;38.50;;;;;;4993207;28;20945;-50
2021/08/20 11:30:19;;;;;;;4.00;3.60;;;32.40;38.60;;;;;;4994305;28;20784;-48
2021/08/20 11:32:45;;;;;;;3.67;3.37;;;32.30;39.30;;;;;;4993312;28;20453;-53
2021/08/20 11:35:11;;;;;;;3.83;3.53;;;32.10;38.90;;;;;;4994238;28;20285;-53
2021/08/20 11:37:51;;;;;;;3.90;3.60;;;31.90;39.20;;;;;;4991326;28;20274;-49
2021/08/20 11:40:16;;;;;;;3.40;3.10;;;31.80;38.70;;;;;;4994194;28;20186;-48
2021/08/20 11:42:42;;;;;;;3.97;3.40;;;31.80;38.10;;;;;;4993131;28;20484;-48
2021/08/20 11:45:21;;;;;;;3.13;2.93;;;31.70;39.00;;;;;;4993635;28;20325;-48
2021/08/20 11:47:47;;;;;;;3.47;3.17;;;31.80;38.00;;;;;;4993063;28;20541;-48
2021/08/20 11:50:13;;;;;;;6.23;3.43;;;32.00;38.70;;;;;;4993712;28;20433;-49
2021/08/20 11:52:50;;;;;;;4.60;4.20;;;32.20;36.80;;;;;;4986841;28;20199;-49
2021/08/20 11:55:18;;;;;;;3.10;2.90;;;32.40;37.10;;;;;;4974473;28;20794;-46
2021/08/20 11:57:43;;;;;;;4.07;3.77;;;32.40;36.20;;;;;;4973088;28;20430;-45
2021/08/20 12:00:11;;;;;;;3.37;3.10;;;32.40;35.60;;;;;;4974243;28;20411;-47
2021/08/20 12:02:37;;;;;;;3.30;3.00;;;32.40;35.70;;;;;;4973586;28;20202;-45
2021/08/20 12:05:20;;;;;;;4.03;3.30;;;32.40;36.00;;;;;;4972686;28;20430;-45
2021/08/20 12:07:47;;;;;;;3.70;3.50;;;32.40;36.80;;;;;;4973117;28;20198;-46
2021/08/20 12:10:16;;;;;;;4.03;3.73;;;32.40;36.00;;;;;;4973956;28;20426;-45
2021/08/20 12:12:44;;;;;;;3.07;2.87;;;32.60;36.80;;;;;;4973278;28;20513;-45
2021/08/20 12:15:11;;;;;;;3.13;2.93;;;32.80;36.30;;;;;;4991452;28;20520;-47
2021/08/20 12:17:38;;;;;;;3.80;3.50;;;32.90;36.40;;;;;;4988966;28;20418;-46
2021/08/20 12:20:17;;;;;;;3.87;3.57;;;33.00;35.80;;;;;;4992990;28;20466;-46
2021/08/20 12:22:49;;;;;;;4.27;3.87;;;32.90;35.30;;;;;;4992087;28;20911;-46
2021/08/20 12:25:24;;;;;;;3.73;2.80;;;32.80;35.80;;;;;;4973695;28;20492;-46
2021/08/20 12:27:51;;;;;;;3.30;2.80;;;32.80;36.30;;;;;;4972787;28;20438;-47
2021/08/20 12:30:25;;;;;;;3.47;3.17;;;32.70;37.20;;;;;;4972160;28;20464;-49
2021/08/20 12:32:56;;;;;;;3.97;3.47;;;32.80;36.70;;;;;;4972929;28;20813;-48
2021/08/20 12:35:22;;;;;;;4.13;3.00;;;32.80;36.10;;;;;;4973725;28;20909;-47
2021/08/20 12:38:10;;;;;;;3.90;3.60;;;32.90;37.60;;;;;;4972614;28;20434;-48
2021/08/20 12:40:56;;;;;;;3.30;3.00;;;32.90;36.70;;;;;;4973251;28;20538;-49
2021/08/20 12:43:23;;;;;;;3.40;3.20;;;33.00;36.00;;;;;;4972951;28;20850;-49
2021/08/20 12:46:04;;;;;;;3.43;3.23;;;33.00;34.60;;;;;;4972914;28;21034;-48
2021/08/20 12:48:30;;;;;;;3.03;2.83;;;33.10;34.40;;;;;;4972765;28;20560;-50
2021/08/20 12:51:01;;;;;;;3.80;3.50;;;33.20;34.20;;;;;;4974258;28;20462;-48